sensor_id;sensor_type;location;lat;lon;timestamp;temperature;humidity
20147;DHT22;10234;50.856;15.716;2023-04-12T00:02:22;-0.80;99.90
20147;DHT22;10234;50.856;15.716;2023-04-12T00:04:48;-1.10;99.90
20147;DHT22;10234;50.856;15.716;2023-04-12T00:19:38;0.00;99.90
20147;DHT22;10234;50.856;15.716;2023-04-12T00:24:33;-1.10;99.90
20147;DHT22;10234;50.856;15.716;2023-04-12T00:27:00;-1.20;99.90
20147;DHT22;10234;50.856;15.716;2023-04-12T00:31:54;-1.20;99.90
20147;DHT22;10234;50.856;15.716;2023-04-12T00:34:22;-1.40;99.90
20147;DHT22;10234;50.856;15.716;2023-04-12T00:36:50;-1.20;99.90
20147;DHT22;10234;50.856;15.716;2023-04-12T00:39:17;-1.30;99.90
20147;DHT22;10234;50.856;15.716;2023-04-12T00:41:43;-1.30;99.90
20147;DHT22;10234;50.856;15.716;2023-04-12T00:44:10;-1.20;99.90
20147;DHT22;10234;50.856;15.716;2023-04-12T00:46:37;-1.20;99.90
20147;DHT22;10234;50.856;15.716;2023-04-12T00:49:04;-1.30;99.90
20147;DHT22;10234;50.856;15.716;2023-04-12T00:54:00;-1.20;99.90
20147;DHT22;10234;50.856;15.716;2023-04-12T00:56:29;-1.20;99.90
20147;DHT22;10234;50.856;15.716;2023-04-12T00:58:56;-1.20;99.90
20147;DHT22;10234;50.856;15.716;2023-04-12T01:01:23;-1.20;99.90
20147;DHT22;10234;50.856;15.716;2023-04-12T01:03:53;-1.20;99.90
20147;DHT22;10234;50.856;15.716;2023-04-12T01:06:33;-1.30;99.90
20147;DHT22;10234;50.856;15.716;2023-04-12T01:09:12;-1.30;99.90
20147;DHT22;10234;50.856;15.716;2023-04-12T01:11:44;-1.30;99.90
20147;DHT22;10234;50.856;15.716;2023-04-12T01:14:17;-1.40;99.90
20147;DHT22;10234;50.856;15.716;2023-04-12T01:16:49;-1.50;99.90
20147;DHT22;10234;50.856;15.716;2023-04-12T01:19:32;-1.40;99.90
20147;DHT22;10234;50.856;15.716;2023-04-12T01:22:09;-1.60;99.90
20147;DHT22;10234;50.856;15.716;2023-04-12T01:24:47;-1.60;99.90
20147;DHT22;10234;50.856;15.716;2023-04-12T01:27:41;-1.40;99.90
20147;DHT22;10234;50.856;15.716;2023-04-12T01:30:13;-1.40;99.90
20147;DHT22;10234;50.856;15.716;2023-04-12T01:32:42;-1.50;99.90
20147;DHT22;10234;50.856;15.716;2023-04-12T01:35:10;-1.50;99.90
20147;DHT22;10234;50.856;15.716;2023-04-12T01:40:07;-1.50;99.90
20147;DHT22;10234;50.856;15.716;2023-04-12T01:42:34;-1.60;99.90
20147;DHT22;10234;50.856;15.716;2023-04-12T01:45:05;-1.50;99.90
20147;DHT22;10234;50.856;15.716;2023-04-12T01:47:32;-1.60;99.90
20147;DHT22;10234;50.856;15.716;2023-04-12T01:50:07;-1.60;99.90
20147;DHT22;10234;50.856;15.716;2023-04-12T01:52:41;-1.50;99.90
20147;DHT22;10234;50.856;15.716;2023-04-12T01:55:11;-1.50;99.90
20147;DHT22;10234;50.856;15.716;2023-04-12T01:57:41;-1.60;99.90
20147;DHT22;10234;50.856;15.716;2023-04-12T02:00:11;-1.60;99.90
20147;DHT22;10234;50.856;15.716;2023-04-12T02:05:08;-1.50;99.90
20147;DHT22;10234;50.856;15.716;2023-04-12T02:17:26;-1.70;99.90
20147;DHT22;10234;50.856;15.716;2023-04-12T02:19:54;-1.70;99.90
20147;DHT22;10234;50.856;15.716;2023-04-12T02:24:49;-1.90;99.90
20147;DHT22;10234;50.856;15.716;2023-04-12T02:27:16;-1.80;99.90
20147;DHT22;10234;50.856;15.716;2023-04-12T02:32:10;-1.40;99.90
20147;DHT22;10234;50.856;15.716;2023-04-12T02:34:38;-1.60;99.90
20147;DHT22;10234;50.856;15.716;2023-04-12T02:37:06;-2.00;99.90
20147;DHT22;10234;50.856;15.716;2023-04-12T02:39:33;-2.10;99.90
20147;DHT22;10234;50.856;15.716;2023-04-12T02:42:00;-2.00;99.90
20147;DHT22;10234;50.856;15.716;2023-04-12T02:44:28;-2.10;99.90
20147;DHT22;10234;50.856;15.716;2023-04-12T02:46:55;-2.10;99.90
20147;DHT22;10234;50.856;15.716;2023-04-12T02:51:50;-2.00;99.90
20147;DHT22;10234;50.856;15.716;2023-04-12T02:54:17;-1.90;99.90
20147;DHT22;10234;50.856;15.716;2023-04-12T02:56:43;-1.90;99.90
20147;DHT22;10234;50.856;15.716;2023-04-12T02:59:10;-1.80;99.90
20147;DHT22;10234;50.856;15.716;2023-04-12T03:01:37;-1.80;99.90
20147;DHT22;10234;50.856;15.716;2023-04-12T03:04:04;-1.80;99.90
20147;DHT22;10234;50.856;15.716;2023-04-12T03:06:32;-1.80;99.90
20147;DHT22;10234;50.856;15.716;2023-04-12T03:09:00;-1.90;99.90
20147;DHT22;10234;50.856;15.716;2023-04-12T03:11:27;-1.90;99.90
20147;DHT22;10234;50.856;15.716;2023-04-12T03:13:54;-1.90;99.90
20147;DHT22;10234;50.856;15.716;2023-04-12T03:16:24;-2.00;99.90
20147;DHT22;10234;50.856;15.716;2023-04-12T03:18:54;-2.10;99.90
20147;DHT22;10234;50.856;15.716;2023-04-12T03:23:48;-2.20;99.90
20147;DHT22;10234;50.856;15.716;2023-04-12T03:26:17;-2.20;99.90
20147;DHT22;10234;50.856;15.716;2023-04-12T03:28:45;-1.70;99.90
20147;DHT22;10234;50.856;15.716;2023-04-12T03:31:12;-2.40;99.90
20147;DHT22;10234;50.856;15.716;2023-04-12T03:33:39;-1.70;99.90
20147;DHT22;10234;50.856;15.716;2023-04-12T03:36:08;-1.50;99.90
20147;DHT22;10234;50.856;15.716;2023-04-12T03:41:02;-2.40;99.90
20147;DHT22;10234;50.856;15.716;2023-04-12T03:43:30;-2.50;99.90
20147;DHT22;10234;50.856;15.716;2023-04-12T03:46:00;-2.20;99.90
20147;DHT22;10234;50.856;15.716;2023-04-12T03:48:27;-2.30;99.90
20147;DHT22;10234;50.856;15.716;2023-04-12T03:50:54;-2.20;99.90
20147;DHT22;10234;50.856;15.716;2023-04-12T03:53:24;-2.30;99.90
20147;DHT22;10234;50.856;15.716;2023-04-12T03:58:19;-2.20;99.90
20147;DHT22;10234;50.856;15.716;2023-04-12T04:00:47;-2.20;99.90
20147;DHT22;10234;50.856;15.716;2023-04-12T04:03:14;-2.30;99.90
20147;DHT22;10234;50.856;15.716;2023-04-12T04:05:41;-2.20;99.90
20147;DHT22;10234;50.856;15.716;2023-04-12T04:08:08;-2.10;99.90
20147;DHT22;10234;50.856;15.716;2023-04-12T04:10:35;-2.00;99.90
20147;DHT22;10234;50.856;15.716;2023-04-12T04:13:03;-2.00;99.90
20147;DHT22;10234;50.856;15.716;2023-04-12T04:15:29;-2.00;99.90
20147;DHT22;10234;50.856;15.716;2023-04-12T04:17:58;-2.30;99.90
20147;DHT22;10234;50.856;15.716;2023-04-12T04:25:19;-2.20;99.90
20147;DHT22;10234;50.856;15.716;2023-04-12T04:27:47;-2.40;99.90
20147;DHT22;10234;50.856;15.716;2023-04-12T04:35:11;-2.10;99.90
20147;DHT22;10234;50.856;15.716;2023-04-12T04:40:08;-1.50;99.90
20147;DHT22;10234;50.856;15.716;2023-04-12T04:42:36;-1.10;99.90
20147;DHT22;10234;50.856;15.716;2023-04-12T04:45:05;-0.50;99.90
20147;DHT22;10234;50.856;15.716;2023-04-12T04:47:38;-0.20;99.90
20147;DHT22;10234;50.856;15.716;2023-04-12T04:50:06;0.30;99.90
20147;DHT22;10234;50.856;15.716;2023-04-12T04:52:34;1.00;99.90
20147;DHT22;10234;50.856;15.716;2023-04-12T04:55:02;1.90;99.90
20147;DHT22;10234;50.856;15.716;2023-04-12T04:59:56;2.30;99.90
20147;DHT22;10234;50.856;15.716;2023-04-12T05:04:50;2.20;99.90
20147;DHT22;10234;50.856;15.716;2023-04-12T05:07:17;2.20;99.90
20147;DHT22;10234;50.856;15.716;2023-04-12T05:09:45;2.50;99.90
20147;DHT22;10234;50.856;15.716;2023-04-12T05:12:12;2.80;99.90
20147;DHT22;10234;50.856;15.716;2023-04-12T05:14:39;3.10;99.90
20147;DHT22;10234;50.856;15.716;2023-04-12T05:22:02;5.10;99.90
20147;DHT22;10234;50.856;15.716;2023-04-12T05:24:28;5.60;99.90
20147;DHT22;10234;50.856;15.716;2023-04-12T05:26:57;6.30;99.90
20147;DHT22;10234;50.856;15.716;2023-04-12T05:29:24;6.80;99.90
20147;DHT22;10234;50.856;15.716;2023-04-12T05:31:51;7.60;99.90
20147;DHT22;10234;50.856;15.716;2023-04-12T05:34:22;8.30;99.90
20147;DHT22;10234;50.856;15.716;2023-04-12T05:36:49;8.80;99.90
20147;DHT22;10234;50.856;15.716;2023-04-12T05:41:43;10.80;99.90
20147;DHT22;10234;50.856;15.716;2023-04-12T05:44:11;10.90;99.90
20147;DHT22;10234;50.856;15.716;2023-04-12T05:46:38;12.30;99.90
20147;DHT22;10234;50.856;15.716;2023-04-12T05:49:05;12.90;99.60
20147;DHT22;10234;50.856;15.716;2023-04-12T05:51:32;13.20;97.50
20147;DHT22;10234;50.856;15.716;2023-04-12T05:53:59;14.20;92.40
20147;DHT22;10234;50.856;15.716;2023-04-12T05:58:53;14.90;83.10
20147;DHT22;10234;50.856;15.716;2023-04-12T06:01:21;15.20;76.80
20147;DHT22;10234;50.856;15.716;2023-04-12T06:03:49;15.40;77.90
20147;DHT22;10234;50.856;15.716;2023-04-12T06:06:16;15.50;75.60
20147;DHT22;10234;50.856;15.716;2023-04-12T06:08:43;15.90;74.60
20147;DHT22;10234;50.856;15.716;2023-04-12T06:13:38;16.60;71.60
20147;DHT22;10234;50.856;15.716;2023-04-12T06:16:05;17.20;68.20
20147;DHT22;10234;50.856;15.716;2023-04-12T06:18:33;17.80;69.60
20147;DHT22;10234;50.856;15.716;2023-04-12T06:21:00;17.90;66.20
20147;DHT22;10234;50.856;15.716;2023-04-12T06:23:28;18.10;66.20
20147;DHT22;10234;50.856;15.716;2023-04-12T06:25:54;18.40;61.60
20147;DHT22;10234;50.856;15.716;2023-04-12T06:28:21;18.50;60.60
20147;DHT22;10234;50.856;15.716;2023-04-12T06:30:48;19.30;62.20
20147;DHT22;10234;50.856;15.716;2023-04-12T06:33:15;19.90;61.00
20147;DHT22;10234;50.856;15.716;2023-04-12T06:35:43;20.60;58.70
20147;DHT22;10234;50.856;15.716;2023-04-12T06:38:10;20.30;57.50
20147;DHT22;10234;50.856;15.716;2023-04-12T06:40:36;21.30;56.10
20147;DHT22;10234;50.856;15.716;2023-04-12T06:45:30;21.50;54.30
20147;DHT22;10234;50.856;15.716;2023-04-12T06:47:57;22.10;55.00
20147;DHT22;10234;50.856;15.716;2023-04-12T06:50:24;22.10;53.20
20147;DHT22;10234;50.856;15.716;2023-04-12T06:52:52;22.50;52.00
20147;DHT22;10234;50.856;15.716;2023-04-12T06:55:20;22.60;51.20
20147;DHT22;10234;50.856;15.716;2023-04-12T06:57:47;23.00;52.40
20147;DHT22;10234;50.856;15.716;2023-04-12T07:00:16;22.90;51.60
20147;DHT22;10234;50.856;15.716;2023-04-12T07:02:43;23.50;52.40
20147;DHT22;10234;50.856;15.716;2023-04-12T07:10:07;24.30;49.80
20147;DHT22;10234;50.856;15.716;2023-04-12T07:12:34;24.50;49.50
20147;DHT22;10234;50.856;15.716;2023-04-12T07:15:01;24.90;49.10
20147;DHT22;10234;50.856;15.716;2023-04-12T07:19:55;25.40;49.10
20147;DHT22;10234;50.856;15.716;2023-04-12T07:22:22;25.10;48.00
20147;DHT22;10234;50.856;15.716;2023-04-12T07:24:49;24.30;49.40
20147;DHT22;10234;50.856;15.716;2023-04-12T07:27:17;24.60;49.60
20147;DHT22;10234;50.856;15.716;2023-04-12T07:29:44;21.40;47.50
20147;DHT22;10234;50.856;15.716;2023-04-12T07:32:11;25.40;48.90
20147;DHT22;10234;50.856;15.716;2023-04-12T07:34:38;26.30;48.50
20147;DHT22;10234;50.856;15.716;2023-04-12T07:37:05;26.20;49.00
20147;DHT22;10234;50.856;15.716;2023-04-12T07:39:32;26.70;47.50
20147;DHT22;10234;50.856;15.716;2023-04-12T07:42:00;26.50;46.40
20147;DHT22;10234;50.856;15.716;2023-04-12T07:44:29;27.00;44.10
20147;DHT22;10234;50.856;15.716;2023-04-12T07:46:58;26.20;44.50
20147;DHT22;10234;50.856;15.716;2023-04-12T07:49:25;25.60;46.10
20147;DHT22;10234;50.856;15.716;2023-04-12T07:51:52;26.70;46.50
20147;DHT22;10234;50.856;15.716;2023-04-12T07:54:19;26.50;43.40
20147;DHT22;10234;50.856;15.716;2023-04-12T07:56:56;26.50;44.40
20147;DHT22;10234;50.856;15.716;2023-04-12T07:59:23;27.60;42.90
20147;DHT22;10234;50.856;15.716;2023-04-12T08:01:51;27.90;43.30
20147;DHT22;10234;50.856;15.716;2023-04-12T08:04:18;26.80;41.10
20147;DHT22;10234;50.856;15.716;2023-04-12T08:06:45;26.70;42.50
20147;DHT22;10234;50.856;15.716;2023-04-12T08:09:12;27.00;42.90
20147;DHT22;10234;50.856;15.716;2023-04-12T08:11:39;26.50;42.60
20147;DHT22;10234;50.856;15.716;2023-04-12T08:14:06;26.80;44.60
20147;DHT22;10234;50.856;15.716;2023-04-12T08:16:33;27.50;40.40
20147;DHT22;10234;50.856;15.716;2023-04-12T08:19:01;27.40;41.00
20147;DHT22;10234;50.856;15.716;2023-04-12T08:21:28;27.30;43.30
20147;DHT22;10234;50.856;15.716;2023-04-12T08:23:55;27.60;41.60
20147;DHT22;10234;50.856;15.716;2023-04-12T08:26:22;27.80;37.30
20147;DHT22;10234;50.856;15.716;2023-04-12T08:28:51;28.20;36.60
20147;DHT22;10234;50.856;15.716;2023-04-12T08:31:17;28.30;38.00
20147;DHT22;10234;50.856;15.716;2023-04-12T08:33:44;28.00;39.30
20147;DHT22;10234;50.856;15.716;2023-04-12T08:36:13;29.00;40.90
20147;DHT22;10234;50.856;15.716;2023-04-12T08:38:40;28.20;40.20
20147;DHT22;10234;50.856;15.716;2023-04-12T08:41:07;29.20;37.70
20147;DHT22;10234;50.856;15.716;2023-04-12T08:43:34;28.60;37.40
20147;DHT22;10234;50.856;15.716;2023-04-12T08:46:02;28.30;38.20
20147;DHT22;10234;50.856;15.716;2023-04-12T08:48:30;28.50;37.50
20147;DHT22;10234;50.856;15.716;2023-04-12T08:50:57;28.80;36.50
20147;DHT22;10234;50.856;15.716;2023-04-12T08:53:25;29.30;34.30
20147;DHT22;10234;50.856;15.716;2023-04-12T08:55:52;29.10;34.20
20147;DHT22;10234;50.856;15.716;2023-04-12T08:58:19;28.50;35.00
20147;DHT22;10234;50.856;15.716;2023-04-12T09:00:47;28.70;35.60
20147;DHT22;10234;50.856;15.716;2023-04-12T09:03:14;28.50;36.80
20147;DHT22;10234;50.856;15.716;2023-04-12T09:05:41;28.90;35.40
20147;DHT22;10234;50.856;15.716;2023-04-12T09:08:08;29.70;34.20
20147;DHT22;10234;50.856;15.716;2023-04-12T09:10:37;28.70;36.20
20147;DHT22;10234;50.856;15.716;2023-04-12T09:13:05;28.80;33.40
20147;DHT22;10234;50.856;15.716;2023-04-12T09:15:32;28.90;33.90
20147;DHT22;10234;50.856;15.716;2023-04-12T09:18:07;28.90;35.50
20147;DHT22;10234;50.856;15.716;2023-04-12T09:20:34;28.30;36.20
20147;DHT22;10234;50.856;15.716;2023-04-12T09:23:11;27.60;36.50
20147;DHT22;10234;50.856;15.716;2023-04-12T09:25:42;29.40;36.50
20147;DHT22;10234;50.856;15.716;2023-04-12T09:28:21;29.30;37.10
20147;DHT22;10234;50.856;15.716;2023-04-12T09:30:48;30.30;36.10
20147;DHT22;10234;50.856;15.716;2023-04-12T09:33:20;31.00;33.50
20147;DHT22;10234;50.856;15.716;2023-04-12T09:35:47;30.80;33.60
20147;DHT22;10234;50.856;15.716;2023-04-12T09:38:15;30.80;33.20
20147;DHT22;10234;50.856;15.716;2023-04-12T09:40:43;30.50;34.80
20147;DHT22;10234;50.856;15.716;2023-04-12T09:43:10;30.30;34.90
20147;DHT22;10234;50.856;15.716;2023-04-12T09:45:37;29.50;35.20
20147;DHT22;10234;50.856;15.716;2023-04-12T09:48:05;29.60;35.60
20147;DHT22;10234;50.856;15.716;2023-04-12T09:50:32;29.70;34.90
20147;DHT22;10234;50.856;15.716;2023-04-12T09:53:01;29.80;35.60
20147;DHT22;10234;50.856;15.716;2023-04-12T09:55:30;30.60;34.90
20147;DHT22;10234;50.856;15.716;2023-04-12T09:58:01;30.10;34.10
20147;DHT22;10234;50.856;15.716;2023-04-12T10:00:30;30.00;33.70
20147;DHT22;10234;50.856;15.716;2023-04-12T10:02:58;30.30;33.50
20147;DHT22;10234;50.856;15.716;2023-04-12T10:05:25;30.00;34.00
20147;DHT22;10234;50.856;15.716;2023-04-12T10:07:52;29.20;34.70
20147;DHT22;10234;50.856;15.716;2023-04-12T10:10:19;28.80;35.80
20147;DHT22;10234;50.856;15.716;2023-04-12T10:12:47;29.50;36.00
20147;DHT22;10234;50.856;15.716;2023-04-12T10:15:16;29.70;33.90
20147;DHT22;10234;50.856;15.716;2023-04-12T10:17:46;29.50;36.90
20147;DHT22;10234;50.856;15.716;2023-04-12T10:20:15;29.90;35.90
20147;DHT22;10234;50.856;15.716;2023-04-12T10:22:43;30.00;36.40
20147;DHT22;10234;50.856;15.716;2023-04-12T10:25:11;29.80;34.00
20147;DHT22;10234;50.856;15.716;2023-04-12T10:27:42;29.20;38.00
20147;DHT22;10234;50.856;15.716;2023-04-12T10:30:21;29.70;38.10
20147;DHT22;10234;50.856;15.716;2023-04-12T10:32:50;29.70;35.80
20147;DHT22;10234;50.856;15.716;2023-04-12T10:35:49;29.70;36.30
20147;DHT22;10234;50.856;15.716;2023-04-12T10:38:17;29.20;36.40
20147;DHT22;10234;50.856;15.716;2023-04-12T10:41:12;29.50;35.60
20147;DHT22;10234;50.856;15.716;2023-04-12T10:43:40;29.30;34.70
20147;DHT22;10234;50.856;15.716;2023-04-12T10:46:47;30.00;38.30
20147;DHT22;10234;50.856;15.716;2023-04-12T10:49:15;29.70;37.60
20147;DHT22;10234;50.856;15.716;2023-04-12T10:54:42;30.00;35.70
20147;DHT22;10234;50.856;15.716;2023-04-12T10:57:39;30.00;32.70
20147;DHT22;10234;50.856;15.716;2023-04-12T11:00:08;29.70;33.30
20147;DHT22;10234;50.856;15.716;2023-04-12T11:03:06;28.50;32.20
20147;DHT22;10234;50.856;15.716;2023-04-12T11:05:58;28.30;32.40
20147;DHT22;10234;50.856;15.716;2023-04-12T11:08:26;28.00;34.00
20147;DHT22;10234;50.856;15.716;2023-04-12T11:10:58;28.40;33.30
20147;DHT22;10234;50.856;15.716;2023-04-12T11:13:27;28.40;32.70
20147;DHT22;10234;50.856;15.716;2023-04-12T11:15:54;26.40;33.60
20147;DHT22;10234;50.856;15.716;2023-04-12T11:18:24;26.10;34.20
20147;DHT22;10234;50.856;15.716;2023-04-12T11:23:19;27.10;35.60
20147;DHT22;10234;50.856;15.716;2023-04-12T11:25:49;27.20;37.60
20147;DHT22;10234;50.856;15.716;2023-04-12T11:28:20;27.30;34.90
20147;DHT22;10234;50.856;15.716;2023-04-12T11:30:49;27.50;35.00
20147;DHT22;10234;50.856;15.716;2023-04-12T11:33:33;27.30;37.50
20147;DHT22;10234;50.856;15.716;2023-04-12T11:36:05;27.00;38.90
20147;DHT22;10234;50.856;15.716;2023-04-12T11:38:34;27.70;32.10
20147;DHT22;10234;50.856;15.716;2023-04-12T11:41:01;27.50;35.80
20147;DHT22;10234;50.856;15.716;2023-04-12T11:45:56;26.30;35.60
20147;DHT22;10234;50.856;15.716;2023-04-12T11:50:52;27.00;35.30
20147;DHT22;10234;50.856;15.716;2023-04-12T11:53:26;27.40;34.10
20147;DHT22;10234;50.856;15.716;2023-04-12T11:55:53;27.50;34.00
20147;DHT22;10234;50.856;15.716;2023-04-12T11:58:22;27.50;34.90
20147;DHT22;10234;50.856;15.716;2023-04-12T12:00:49;26.30;32.50
20147;DHT22;10234;50.856;15.716;2023-04-12T12:03:16;25.80;36.30
20147;DHT22;10234;50.856;15.716;2023-04-12T12:08:13;25.50;33.70
20147;DHT22;10234;50.856;15.716;2023-04-12T12:10:40;25.20;32.50
20147;DHT22;10234;50.856;15.716;2023-04-12T12:13:10;24.00;33.90
20147;DHT22;10234;50.856;15.716;2023-04-12T12:15:37;21.30;38.70
20147;DHT22;10234;50.856;15.716;2023-04-12T12:18:06;20.60;42.70
20147;DHT22;10234;50.856;15.716;2023-04-12T12:20:39;19.70;45.60
20147;DHT22;10234;50.856;15.716;2023-04-12T12:23:06;18.80;46.70
20147;DHT22;10234;50.856;15.716;2023-04-12T12:25:35;18.00;42.00
20147;DHT22;10234;50.856;15.716;2023-04-12T12:28:01;16.70;44.20
20147;DHT22;10234;50.856;15.716;2023-04-12T12:30:36;16.70;50.30
20147;DHT22;10234;50.856;15.716;2023-04-12T12:33:04;17.00;52.30
20147;DHT22;10234;50.856;15.716;2023-04-12T12:35:34;16.80;46.50
20147;DHT22;10234;50.856;15.716;2023-04-12T12:38:06;16.40;46.50
20147;DHT22;10234;50.856;15.716;2023-04-12T12:43:02;16.30;47.20
20147;DHT22;10234;50.856;15.716;2023-04-12T12:45:32;16.50;46.90
20147;DHT22;10234;50.856;15.716;2023-04-12T12:48:00;16.10;44.60
20147;DHT22;10234;50.856;15.716;2023-04-12T12:50:29;16.00;45.10
20147;DHT22;10234;50.856;15.716;2023-04-12T12:52:56;15.80;47.20
20147;DHT22;10234;50.856;15.716;2023-04-12T12:57:53;15.20;51.50
20147;DHT22;10234;50.856;15.716;2023-04-12T13:00:23;15.10;48.60
20147;DHT22;10234;50.856;15.716;2023-04-12T13:02:51;15.00;50.10
20147;DHT22;10234;50.856;15.716;2023-04-12T13:05:18;14.40;51.30
20147;DHT22;10234;50.856;15.716;2023-04-12T13:07:46;14.30;47.20
20147;DHT22;10234;50.856;15.716;2023-04-12T13:10:13;14.00;47.70
20147;DHT22;10234;50.856;15.716;2023-04-12T13:12:40;14.30;51.20
20147;DHT22;10234;50.856;15.716;2023-04-12T13:15:07;14.20;48.20
20147;DHT22;10234;50.856;15.716;2023-04-12T13:17:37;14.10;47.20
20147;DHT22;10234;50.856;15.716;2023-04-12T13:20:05;14.00;47.10
20147;DHT22;10234;50.856;15.716;2023-04-12T13:22:33;13.70;53.20
20147;DHT22;10234;50.856;15.716;2023-04-12T13:32:21;13.90;53.20
20147;DHT22;10234;50.856;15.716;2023-04-12T13:34:49;13.50;49.00
20147;DHT22;10234;50.856;15.716;2023-04-12T13:37:16;13.30;54.70
20147;DHT22;10234;50.856;15.716;2023-04-12T13:42:10;13.30;52.20
20147;DHT22;10234;50.856;15.716;2023-04-12T13:49:34;13.40;50.90
20147;DHT22;10234;50.856;15.716;2023-04-12T13:52:02;13.40;51.40
20147;DHT22;10234;50.856;15.716;2023-04-12T13:59:23;12.90;52.00
20147;DHT22;10234;50.856;15.716;2023-04-12T14:04:17;12.90;54.30
20147;DHT22;10234;50.856;15.716;2023-04-12T14:09:21;12.90;50.80
20147;DHT22;10234;50.856;15.716;2023-04-12T14:11:48;13.00;55.00
20147;DHT22;10234;50.856;15.716;2023-04-12T14:26:33;12.80;48.90
20147;DHT22;10234;50.856;15.716;2023-04-12T14:31:27;12.90;54.80
20147;DHT22;10234;50.856;15.716;2023-04-12T14:33:54;12.80;55.10
20147;DHT22;10234;50.856;15.716;2023-04-12T14:38:48;12.90;57.10
20147;DHT22;10234;50.856;15.716;2023-04-12T14:43:43;12.90;57.20
20147;DHT22;10234;50.856;15.716;2023-04-12T14:46:11;13.00;52.80
20147;DHT22;10234;50.856;15.716;2023-04-12T14:48:38;12.90;56.20
20147;DHT22;10234;50.856;15.716;2023-04-12T14:51:05;12.80;51.70
20147;DHT22;10234;50.856;15.716;2023-04-12T14:55:59;12.40;55.60
20147;DHT22;10234;50.856;15.716;2023-04-12T15:00:56;12.30;50.70
20147;DHT22;10234;50.856;15.716;2023-04-12T15:03:25;12.20;50.10
20147;DHT22;10234;50.856;15.716;2023-04-12T15:18:13;11.60;52.40
20147;DHT22;10234;50.856;15.716;2023-04-12T15:20:40;11.60;58.30
20147;DHT22;10234;50.856;15.716;2023-04-12T15:28:04;12.10;53.20
20147;DHT22;10234;50.856;15.716;2023-04-12T15:35:26;12.10;59.40
20147;DHT22;10234;50.856;15.716;2023-04-12T15:47:44;12.10;57.50
20147;DHT22;10234;50.856;15.716;2023-04-12T15:50:11;12.40;60.60
20147;DHT22;10234;50.856;15.716;2023-04-12T15:52:39;12.10;54.30
20147;DHT22;10234;50.856;15.716;2023-04-12T15:55:09;12.00;58.10
20147;DHT22;10234;50.856;15.716;2023-04-12T15:57:37;11.90;61.00
20147;DHT22;10234;50.856;15.716;2023-04-12T16:00:04;11.80;55.40
20147;DHT22;10234;50.856;15.716;2023-04-12T16:07:43;11.30;63.50
20147;DHT22;10234;50.856;15.716;2023-04-12T16:12:38;11.40;58.20
20147;DHT22;10234;50.856;15.716;2023-04-12T16:15:05;11.40;56.90
20147;DHT22;10234;50.856;15.716;2023-04-12T16:24:59;11.20;64.40
20147;DHT22;10234;50.856;15.716;2023-04-12T16:27:25;11.20;64.30
20147;DHT22;10234;50.856;15.716;2023-04-12T16:32:21;11.00;59.20
20147;DHT22;10234;50.856;15.716;2023-04-12T16:34:48;11.30;64.20
20147;DHT22;10234;50.856;15.716;2023-04-12T16:39:44;11.00;59.40
20147;DHT22;10234;50.856;15.716;2023-04-12T16:42:12;11.10;61.80
20147;DHT22;10234;50.856;15.716;2023-04-12T16:44:40;11.10;61.20
20147;DHT22;10234;50.856;15.716;2023-04-12T16:47:07;11.00;58.60
20147;DHT22;10234;50.856;15.716;2023-04-12T16:52:02;10.80;59.00
20147;DHT22;10234;50.856;15.716;2023-04-12T16:59:25;10.80;58.80
20147;DHT22;10234;50.856;15.716;2023-04-12T17:04:22;11.00;60.20
20147;DHT22;10234;50.856;15.716;2023-04-12T17:06:54;10.70;60.40
20147;DHT22;10234;50.856;15.716;2023-04-12T17:11:52;10.80;59.30
20147;DHT22;10234;50.856;15.716;2023-04-12T17:16:47;10.90;64.50
20147;DHT22;10234;50.856;15.716;2023-04-12T17:21:45;10.80;60.00
20147;DHT22;10234;50.856;15.716;2023-04-12T17:26:39;10.90;67.90
20147;DHT22;10234;50.856;15.716;2023-04-12T17:31:35;10.60;60.40
20147;DHT22;10234;50.856;15.716;2023-04-12T17:34:03;10.60;66.80
20147;DHT22;10234;50.856;15.716;2023-04-12T17:38:57;10.60;60.50
20147;DHT22;10234;50.856;15.716;2023-04-12T17:41:25;10.60;60.30
20147;DHT22;10234;50.856;15.716;2023-04-12T17:46:19;11.20;69.40
20147;DHT22;10234;50.856;15.716;2023-04-12T17:51:16;10.30;65.90
20147;DHT22;10234;50.856;15.716;2023-04-12T17:58:37;10.30;69.10
20147;DHT22;10234;50.856;15.716;2023-04-12T18:01:04;10.00;69.00
20147;DHT22;10234;50.856;15.716;2023-04-12T18:08:29;10.00;65.20
20147;DHT22;10234;50.856;15.716;2023-04-12T18:15:52;9.90;71.40
20147;DHT22;10234;50.856;15.716;2023-04-12T18:20:54;10.10;65.50
20147;DHT22;10234;50.856;15.716;2023-04-12T18:25:53;10.20;65.60
20147;DHT22;10234;50.856;15.716;2023-04-12T18:40:37;10.30;66.40
20147;DHT22;10234;50.856;15.716;2023-04-12T18:43:05;10.40;66.40
20147;DHT22;10234;50.856;15.716;2023-04-12T18:45:37;10.40;67.00
20147;DHT22;10234;50.856;15.716;2023-04-12T18:48:04;10.30;67.40
20147;DHT22;10234;50.856;15.716;2023-04-12T19:00:22;10.30;67.20
20147;DHT22;10234;50.856;15.716;2023-04-12T19:07:43;10.10;77.40
20147;DHT22;10234;50.856;15.716;2023-04-12T19:15:06;10.20;69.30
20147;DHT22;10234;50.856;15.716;2023-04-12T19:17:34;10.10;69.30
20147;DHT22;10234;50.856;15.716;2023-04-12T19:27:24;10.10;72.40
20147;DHT22;10234;50.856;15.716;2023-04-12T19:29:55;10.10;69.20
20147;DHT22;10234;50.856;15.716;2023-04-12T19:41:32;10.10;70.40
20147;DHT22;10234;50.856;15.716;2023-04-12T20:12:09;9.90;77.40
20147;DHT22;10234;50.856;15.716;2023-04-12T20:20:41;9.80;81.30
20147;DHT22;10234;50.856;15.716;2023-04-12T20:40:03;9.50;91.90
20147;DHT22;10234;50.856;15.716;2023-04-12T20:52:35;9.80;92.50
20147;DHT22;10234;50.856;15.716;2023-04-12T20:55:12;9.70;90.90
20147;DHT22;10234;50.856;15.716;2023-04-12T21:05:09;9.90;93.60
20147;DHT22;10234;50.856;15.716;2023-04-12T21:10:08;9.60;91.70
20147;DHT22;10234;50.856;15.716;2023-04-12T21:12:37;9.50;96.20
20147;DHT22;10234;50.856;15.716;2023-04-12T21:15:04;9.50;96.80
20147;DHT22;10234;50.856;15.716;2023-04-12T21:17:32;9.70;96.20
20147;DHT22;10234;50.856;15.716;2023-04-12T21:22:41;9.90;94.10
20147;DHT22;10234;50.856;15.716;2023-04-12T21:25:10;9.40;99.90
20147;DHT22;10234;50.856;15.716;2023-04-12T21:27:39;9.20;99.90
20147;DHT22;10234;50.856;15.716;2023-04-12T21:30:07;9.20;99.90
20147;DHT22;10234;50.856;15.716;2023-04-12T21:32:35;9.60;99.90
20147;DHT22;10234;50.856;15.716;2023-04-12T21:35:02;9.00;99.90
20147;DHT22;10234;50.856;15.716;2023-04-12T21:39:58;8.50;99.90
20147;DHT22;10234;50.856;15.716;2023-04-12T21:42:26;8.50;99.90
20147;DHT22;10234;50.856;15.716;2023-04-12T21:44:54;8.50;99.90
20147;DHT22;10234;50.856;15.716;2023-04-12T21:49:51;8.20;99.90
20147;DHT22;10234;50.856;15.716;2023-04-12T21:54:44;8.00;99.90